createdAt,value
2018-09-17T00:01:32.545Z,97947.21
2018-09-17T00:03:59.459Z,97945.62
2018-09-17T00:06:26.380Z,97947.45
2018-09-17T00:08:53.307Z,97946.13
2018-09-17T00:11:20.265Z,97944.30
2018-09-17T00:13:47.698Z,97945.62
2018-09-17T00:16:14.678Z,97940.36
2018-09-17T00:18:41.663Z,97941.16
2018-09-17T00:21:08.672Z,97944.58
2018-09-17T00:23:35.648Z,97941.16
2018-09-17T00:26:02.613Z,97938.53
2018-09-17T00:28:29.550Z,97939.84
2018-09-17T00:30:56.516Z,97936.42
2018-09-17T00:33:23.418Z,97942.20
2018-09-17T00:35:51.302Z,97939.56
2018-09-17T00:38:18.250Z,97932.48
2018-09-17T00:40:45.195Z,97927.75
2018-09-17T00:43:12.136Z,97926.72
2018-09-17T00:45:39.128Z,97924.61
2018-09-17T00:48:06.118Z,97929.34
2018-09-17T00:50:33.075Z,97925.12
2018-09-17T00:53:00.014Z,97921.98
2018-09-17T00:55:27.053Z,97917.52
2018-09-17T00:57:54.039Z,97918.31
2018-09-17T01:00:21.032Z,97913.58
2018-09-17T01:02:48.010Z,97908.33
2018-09-17T01:05:14.978Z,97917.52
2018-09-17T01:07:41.986Z,97908.33
2018-09-17T01:10:08.951Z,97905.70
2018-09-17T01:12:35.909Z,97910.16
2018-09-17T01:15:02.855Z,97908.33
2018-09-17T01:17:29.787Z,97905.70
2018-09-17T01:19:56.744Z,97899.94
2018-09-17T01:22:23.699Z,97905.19
2018-09-17T01:24:50.636Z,97910.44
2018-09-17T01:27:17.575Z,97904.67
2018-09-17T01:29:44.538Z,97903.36
2018-09-17T01:32:11.500Z,97903.88
2018-09-17T01:34:38.441Z,97899.14
2018-09-17T01:37:05.365Z,97907.81
2018-09-17T01:39:32.381Z,97905.19
2018-09-17T01:41:59.328Z,97903.36
2018-09-17T01:44:26.422Z,97899.94
2018-09-17T01:46:53.372Z,97898.62
2018-09-17T01:49:20.316Z,97895.99
2018-09-17T01:51:47.253Z,97897.83
2018-09-17T01:54:14.206Z,97892.84
2018-09-17T01:56:41.153Z,97896.79
2018-09-17T01:59:08.090Z,97893.37
2018-09-17T02:01:35.040Z,97898.62
2018-09-17T02:04:01.988Z,97894.16
2018-09-17T02:06:28.944Z,97896.52
2018-09-17T02:08:55.955Z,97896.79
2018-09-17T02:11:22.869Z,97898.10
2018-09-17T02:13:49.870Z,97901.25
2018-09-17T02:16:16.874Z,97909.12
2018-09-17T02:18:43.863Z,97905.98
2018-09-17T02:21:11.238Z,97904.67
2018-09-17T02:23:38.223Z,97907.30
2018-09-17T02:26:05.254Z,97910.44
2018-09-17T02:28:32.184Z,97911.75
2018-09-17T02:30:59.131Z,97913.86
2018-09-17T02:33:26.106Z,97915.69
2018-09-17T02:35:53.114Z,97909.41
2018-09-17T02:38:20.080Z,97908.61
2018-09-17T02:40:47.133Z,97909.92
2018-09-17T02:43:14.125Z,97909.41
2018-09-17T02:45:41.067Z,97908.61
2018-09-17T02:48:08.016Z,97906.78
2018-09-17T02:50:35.163Z,97904.15
2018-09-17T02:53:02.135Z,97905.98
2018-09-17T02:55:29.091Z,97907.30
2018-09-17T02:57:56.068Z,97906.50
2018-09-17T03:00:23.034Z,97907.30
2018-09-17T03:02:50.800Z,97909.41
2018-09-17T03:05:17.756Z,97910.72
2018-09-17T03:07:44.726Z,97908.61
2018-09-17T03:10:11.700Z,97913.86
2018-09-17T03:12:38.829Z,97915.17
2018-09-17T03:15:05.785Z,97919.91
2018-09-17T03:17:32.681Z,97921.73
2018-09-17T03:19:59.645Z,97917.80
2018-09-17T03:22:26.601Z,97923.33
2018-09-17T03:24:53.597Z,97920.43
2018-09-17T03:27:20.653Z,97922.54
2018-09-17T03:29:47.629Z,97922.54
2018-09-17T03:32:14.589Z,97922.02
2018-09-17T03:34:41.577Z,97924.09
2018-09-17T03:37:08.579Z,97926.99
2018-09-17T03:39:35.572Z,97934.87
2018-09-17T03:42:02.489Z,97932.77
2018-09-17T03:44:29.448Z,97938.30
2018-09-17T03:46:56.433Z,97946.45
2018-09-17T03:49:23.369Z,97947.48
2018-09-17T03:51:50.336Z,97946.17
2018-09-17T03:54:17.324Z,97940.41
2018-09-17T03:56:44.242Z,97947.48
2018-09-17T03:59:11.220Z,97947.48
2018-09-17T04:01:38.216Z,97952.47
2018-09-17T04:04:05.181Z,97950.08
2018-09-17T04:06:37.590Z,97954.53
2018-09-17T04:09:05.404Z,97958.19
2018-09-17T04:11:32.343Z,97960.30
2018-09-17T04:13:59.274Z,97963.16
2018-09-17T04:16:26.262Z,97963.20
2018-09-17T04:18:53.237Z,97966.11
2018-09-17T04:21:20.314Z,97960.91
2018-09-17T04:23:47.243Z,97966.44
2018-09-17T04:26:14.172Z,97966.72
2018-09-17T04:28:41.300Z,97968.27
2018-09-17T04:31:08.278Z,97978.77
2018-09-17T04:33:39.474Z,97975.35
2018-09-17T04:36:06.583Z,97976.38
2018-09-17T04:38:33.602Z,97975.87
2018-09-17T04:41:00.566Z,97982.44
2018-09-17T04:43:27.529Z,97984.27
2018-09-17T04:45:54.442Z,97977.18
2018-09-17T04:48:21.415Z,97982.95
2018-09-17T04:50:48.393Z,97983.47
2018-09-17T04:53:15.411Z,97989.80
2018-09-17T04:55:42.440Z,97989.80
2018-09-17T04:58:09.410Z,97984.78
2018-09-17T05:00:36.462Z,97985.58
2018-09-17T05:03:03.494Z,97986.38
2018-09-17T05:05:30.520Z,97989.00
2018-09-17T05:07:57.468Z,97992.42
2018-09-17T05:10:24.419Z,97990.31
2018-09-17T05:12:51.405Z,97989.00
2018-09-17T05:15:18.326Z,97993.45
2018-09-17T05:17:45.349Z,97988.48
2018-09-17T05:20:12.284Z,97990.31
2018-09-17T05:22:39.258Z,97994.25
2018-09-17T05:25:06.369Z,97993.22
2018-09-17T05:27:33.360Z,97993.73
2018-09-17T05:30:00.327Z,97995.05
2018-09-17T05:32:27.312Z,97998.98
2018-09-17T05:34:54.610Z,98008.70
2018-09-17T05:37:21.525Z,98004.77
2018-09-17T05:39:48.499Z,98001.10
2018-09-17T05:42:15.442Z,98004.25
2018-09-17T05:44:42.458Z,98003.45
2018-09-17T05:47:09.434Z,98002.13
2018-09-17T05:49:36.447Z,97998.20
2018-09-17T05:52:03.381Z,98003.45
2018-09-17T05:54:30.317Z,97996.87
2018-09-17T05:56:57.264Z,97994.53
2018-09-17T05:59:24.241Z,97990.31
2018-09-17T06:01:51.205Z,97986.38
2018-09-17T06:04:18.170Z,97990.31
2018-09-17T06:06:45.149Z,97992.42
2018-09-17T06:09:13.274Z,97993.73
2018-09-17T06:11:40.255Z,97993.45
2018-09-17T06:14:07.677Z,97996.36
2018-09-17T06:16:34.666Z,97994.25
2018-09-17T06:19:01.660Z,97994.25
2018-09-17T06:21:28.620Z,98001.34
2018-09-17T06:23:55.565Z,98003.45
2018-09-17T06:26:22.513Z,98003.96
2018-09-17T06:28:49.607Z,98009.22
2018-09-17T06:31:16.528Z,98006.59
2018-09-17T06:33:43.451Z,98005.28
2018-09-17T06:36:10.413Z,98003.16
2018-09-17T06:38:37.365Z,98010.53
2018-09-17T06:41:04.374Z,98003.16
2018-09-17T06:43:31.338Z,98000.02
2018-09-17T06:45:58.343Z,97997.39
2018-09-17T06:48:25.353Z,98000.81
2018-09-17T06:50:52.326Z,98000.30
2018-09-17T06:53:19.245Z,98006.08
2018-09-17T06:55:46.193Z,98005.80
2018-09-17T06:58:13.134Z,98008.70
2018-09-17T07:00:40.109Z,98006.08
2018-09-17T07:03:07.047Z,98005.55
2018-09-17T07:05:34.044Z,98006.59
2018-09-17T07:08:00.997Z,98008.70
2018-09-17T07:10:27.978Z,98004.77
2018-09-17T07:12:54.906Z,98010.53
2018-09-17T07:15:21.843Z,98005.28
2018-09-17T07:17:48.834Z,98005.80
2018-09-17T07:20:15.778Z,98002.38
2018-09-17T07:22:42.803Z,98002.89
2018-09-17T07:25:09.758Z,98006.58
2018-09-17T07:27:36.672Z,98012.83
2018-09-17T07:30:03.594Z,98018.20
2018-09-17T07:32:30.592Z,98019.50
2018-09-17T07:34:57.500Z,98018.18
2018-09-17T07:37:24.430Z,98016.07
2018-09-17T07:39:51.320Z,98010.52
2018-09-17T07:42:18.208Z,98011.34
2018-09-17T07:44:45.108Z,98009.01
2018-09-17T07:47:12.011Z,98000.98
2018-09-17T07:49:38.946Z,98013.67
2018-09-17T07:52:05.866Z,98010.05
2018-09-17T07:54:32.762Z,98022.41
2018-09-17T07:56:59.738Z,98005.99
2018-09-17T07:59:26.653Z,98002.80
2018-09-17T08:01:53.540Z,98005.33
2018-09-17T08:04:20.441Z,98003.33
2018-09-17T08:06:47.332Z,98002.71
2018-09-17T08:09:14.996Z,98005.80
2018-09-17T08:11:42.790Z,98014.05
2018-09-17T08:14:09.756Z,98003.60
2018-09-17T08:16:36.644Z,98006.02
2018-09-17T08:19:03.610Z,98002.41
2018-09-17T08:21:30.501Z,98000.58
2018-09-17T08:23:57.393Z,98000.20
2018-09-17T08:26:24.293Z,98001.94
2018-09-17T08:28:51.189Z,98000.52
2018-09-17T08:31:18.109Z,97999.38
2018-09-17T08:33:45.003Z,97998.02
2018-09-17T08:36:11.920Z,98003.00
2018-09-17T08:38:38.835Z,97998.38
2018-09-17T08:41:05.729Z,97994.48
2018-09-17T08:43:32.628Z,97989.98
2018-09-17T08:45:59.540Z,97997.11
2018-09-17T08:48:26.433Z,97993.83
2018-09-17T08:50:53.339Z,97997.02
2018-09-17T08:53:20.241Z,97993.59
2018-09-17T08:55:51.360Z,97991.77
2018-09-17T08:58:24.366Z,97991.77
2018-09-17T09:01:00.276Z,97992.05
2018-09-17T09:03:29.682Z,97982.34
2018-09-17T09:06:01.898Z,97993.41
2018-09-17T09:08:28.789Z,97978.17
2018-09-17T09:11:01.054Z,97976.34
2018-09-17T09:13:33.283Z,97971.38
2018-09-17T09:16:00.174Z,97969.31
2018-09-17T09:18:27.074Z,97973.25
2018-09-17T09:20:53.967Z,97968.80
2018-09-17T09:23:20.863Z,97973.02
2018-09-17T09:25:47.770Z,97962.01
2018-09-17T09:28:14.711Z,97962.83
2018-09-17T09:30:41.627Z,97959.69
2018-09-17T09:33:08.530Z,97959.18
2018-09-17T09:35:35.429Z,97955.24
2018-09-17T09:38:02.371Z,97956.31
2018-09-17T09:40:29.265Z,97949.76
2018-09-17T09:42:56.205Z,97951.87
2018-09-17T09:45:23.092Z,97947.93
2018-09-17T09:47:49.988Z,97945.59
2018-09-17T09:50:16.990Z,97947.18
2018-09-17T09:52:43.908Z,97943.75
2018-09-17T09:55:10.993Z,97944.84
2018-09-17T09:57:37.949Z,97946.14
2018-09-17T10:00:04.888Z,97944.32
2018-09-17T10:02:37.025Z,97944.32
2018-09-17T10:05:03.937Z,97947.79
2018-09-17T10:07:30.879Z,97946.47
2018-09-17T10:10:03.176Z,97942.58
2018-09-17T10:12:35.500Z,97936.02
2018-09-17T10:15:07.699Z,97939.95
2018-09-17T10:18:43.498Z,97936.81
2018-09-17T10:21:10.489Z,97934.50
2018-09-17T10:23:37.427Z,97934.78
2018-09-17T10:26:04.618Z,97926.91
2018-09-17T10:28:31.724Z,97928.50
2018-09-17T10:30:58.654Z,97923.25
2018-09-17T10:33:25.641Z,97921.70
2018-09-17T10:35:52.597Z,97919.08
2018-09-17T10:38:19.572Z,97916.97
2018-09-17T10:40:46.545Z,97913.62
2018-09-17T10:43:13.536Z,97909.40
2018-09-17T10:45:40.543Z,97910.99
2018-09-17T10:48:07.468Z,97903.63
2018-09-17T10:50:34.596Z,97911.79
2018-09-17T10:53:01.554Z,97901.29
2018-09-17T10:55:28.480Z,97899.73
2018-09-17T10:57:55.390Z,97902.36
2018-09-17T11:00:23.282Z,97904.15
2018-09-17T11:02:50.264Z,97902.01
2018-09-17T11:05:17.205Z,97898.90
2018-09-17T11:07:44.182Z,97899.38
2018-09-17T11:10:13.249Z,97892.82
2018-09-17T11:12:40.146Z,97895.45
2018-09-17T11:15:07.171Z,97899.38
2018-09-17T11:17:34.134Z,97901.52
2018-09-17T11:20:01.091Z,97897.27
2018-09-17T11:22:28.046Z,97888.09
2018-09-17T11:24:55.038Z,97892.82
2018-09-17T11:27:22.003Z,97892.82
2018-09-17T11:29:48.899Z,97889.19
2018-09-17T11:32:15.871Z,97885.53
2018-09-17T11:34:42.767Z,97879.20
2018-09-17T11:37:09.686Z,97874.75
2018-09-17T11:39:36.614Z,97849.27
2018-09-17T11:42:03.555Z,97872.64
2018-09-17T11:44:30.461Z,97867.39
2018-09-17T11:46:57.368Z,97863.73
2018-09-17T11:51:57.560Z,97853.23
2018-09-17T11:54:24.462Z,97860.59
2018-09-17T11:56:51.364Z,97851.92
2018-09-17T11:59:18.268Z,97853.23
2018-09-17T12:01:55.401Z,97843.53
2018-09-17T12:04:27.501Z,97837.48
2018-09-17T12:06:59.697Z,97837.76
2018-09-17T12:09:26.613Z,97832.50
2018-09-17T12:11:53.524Z,97831.71
2018-09-17T12:14:20.470Z,97827.77
2018-09-17T12:16:47.400Z,97830.40
2018-09-17T12:19:14.305Z,97818.59
2018-09-17T12:21:41.240Z,97822.28
2018-09-17T12:24:08.186Z,97817.03
2018-09-17T12:26:35.107Z,97810.47
2018-09-17T12:29:02.089Z,97812.09
2018-09-17T12:31:29.088Z,97798.25
2018-09-17T12:33:56.073Z,97808.51
2018-09-17T12:36:23.028Z,97798.00
2018-09-17T12:38:50.029Z,97797.48
2018-09-17T12:41:17.070Z,97799.59
2018-09-17T12:43:44.088Z,97795.14
2018-09-17T12:46:11.053Z,97799.36
2018-09-17T12:48:38.035Z,97788.85
2018-09-17T12:51:04.998Z,97786.23
2018-09-17T12:53:32.133Z,97784.67
2018-09-17T12:55:59.117Z,97785.47
2018-09-17T12:58:26.138Z,97782.33
2018-09-17T13:00:53.130Z,97779.70
2018-09-17T13:03:20.137Z,97782.33
2018-09-17T13:05:47.124Z,97784.44
2018-09-17T13:08:14.248Z,97780.49
2018-09-17T13:10:41.251Z,97780.77
2018-09-17T13:13:08.157Z,97782.08
2018-09-17T13:15:39.305Z,97772.89
2018-09-17T13:18:06.289Z,97766.60
2018-09-17T13:20:33.296Z,97764.50
2018-09-17T13:23:00.272Z,97755.58
2018-09-17T13:25:27.237Z,97752.16
2018-09-17T13:27:54.234Z,97759.00
2018-09-17T13:30:21.200Z,97753.75
2018-09-17T13:32:48.274Z,97751.64
2018-09-17T13:35:15.205Z,97748.77
2018-09-17T13:37:42.177Z,97744.25
2018-09-17T13:40:09.191Z,97747.98
2018-09-17T13:42:36.263Z,97745.63
2018-09-17T13:45:03.186Z,97740.10
2018-09-17T13:47:30.194Z,97738.27
2018-09-17T13:49:57.195Z,97736.95
2018-09-17T13:52:24.201Z,97730.88
2018-09-17T13:54:51.175Z,97732.19
2018-09-17T13:57:18.129Z,97727.45
2018-09-17T13:59:45.121Z,97726.14
2018-09-17T14:02:12.107Z,97726.94
2018-09-17T14:04:39.060Z,97716.95
2018-09-17T14:07:06.031Z,97724.31
2018-09-17T14:09:33.044Z,97723.00
2018-09-17T14:12:00.072Z,97712.50
2018-09-17T14:14:27.122Z,97707.77
2018-09-17T14:16:54.109Z,97700.68
2018-09-17T14:19:21.218Z,97702.51
2018-09-17T14:21:48.159Z,97705.13
2018-09-17T14:24:15.207Z,97696.73
2018-09-17T14:26:42.243Z,97694.11
2018-09-17T14:29:09.611Z,97691.77
2018-09-17T14:31:41.889Z,97690.69
2018-09-17T14:34:08.932Z,97686.23
2018-09-17T14:36:35.923Z,97690.17
2018-09-17T14:39:02.908Z,97685.72
2018-09-17T14:41:29.939Z,97688.34
2018-09-17T14:43:56.964Z,97689.66
2018-09-17T14:46:23.967Z,97685.72
2018-09-17T14:48:50.949Z,97684.67
2018-09-17T14:51:17.968Z,97684.67
2018-09-17T14:53:44.994Z,97683.88
2018-09-17T14:56:12.000Z,97683.88
2018-09-17T14:58:38.983Z,97681.26
2018-09-17T15:01:06.056Z,97679.95
2018-09-17T15:03:33.049Z,97683.37
2018-09-17T15:06:00.017Z,97683.88
2018-09-17T15:08:27.110Z,97683.37
2018-09-17T15:10:54.053Z,97679.43
2018-09-17T15:13:20.980Z,97681.78
2018-09-17T15:15:53.120Z,97678.63
2018-09-17T15:18:20.092Z,97672.59
2018-09-17T15:20:46.988Z,97677.32
2018-09-17T15:23:14.104Z,97673.38
2018-09-17T15:25:41.012Z,97674.97
2018-09-17T15:28:07.931Z,97668.13
2018-09-17T15:30:34.952Z,97668.41
2018-09-17T15:33:01.851Z,97674.20
2018-09-17T15:35:28.910Z,97673.72
2018-09-17T15:37:55.812Z,97664.01
2018-09-17T15:40:22.820Z,97660.59
2018-09-17T15:42:49.865Z,97651.61
2018-09-17T15:45:16.772Z,97655.55
2018-09-17T15:47:43.685Z,97656.86
2018-09-17T15:50:10.621Z,97657.66
2018-09-17T15:52:37.539Z,97652.92
2018-09-17T15:55:04.476Z,97648.47
2018-09-17T15:57:31.482Z,97654.23
2018-09-17T15:59:58.389Z,97653.44
2018-09-17T16:02:25.387Z,97652.41
2018-09-17T16:04:52.295Z,97645.84
2018-09-17T16:07:26.698Z,97643.73
2018-09-17T16:09:53.598Z,97650.81
2018-09-17T16:12:20.565Z,97653.72
2018-09-17T16:14:47.527Z,97652.92
2018-09-17T16:17:14.522Z,97651.61
2018-09-17T16:19:41.576Z,97650.81
2018-09-17T16:22:08.477Z,97652.92
2018-09-17T16:24:35.465Z,97645.84
2018-09-17T16:27:02.479Z,97647.16
2018-09-17T16:29:29.416Z,97647.16
2018-09-17T16:31:56.341Z,97644.53
2018-09-17T16:34:23.298Z,97641.90
2018-09-17T16:36:50.531Z,97643.21
2018-09-17T16:39:17.579Z,97637.16
2018-09-17T16:41:44.614Z,97641.90
2018-09-17T16:44:11.526Z,97640.06
2018-09-17T16:46:38.589Z,97639.27
2018-09-17T16:49:05.568Z,97644.01
2018-09-17T16:51:32.495Z,97638.75
2018-09-17T16:53:59.558Z,97640.06
2018-09-17T16:56:26.477Z,97638.27
2018-09-17T16:58:53.432Z,97637.44
2018-09-17T17:01:20.308Z,97635.91
2018-09-17T17:03:47.198Z,97633.81
2018-09-17T17:06:14.093Z,97634.33
2018-09-17T17:08:41.004Z,97632.49
2018-09-17T17:11:07.941Z,97631.97
2018-09-17T17:13:34.942Z,97636.70
2018-09-17T17:16:01.976Z,97629.34
2018-09-17T17:18:28.896Z,97634.60
2018-09-17T17:20:55.956Z,97631.45
2018-09-17T17:23:22.866Z,97638.81
2018-09-17T17:25:49.798Z,97635.12
2018-09-17T17:28:17.084Z,97641.16
2018-09-17T17:30:44.083Z,97638.02
2018-09-17T17:33:11.107Z,97639.06
2018-09-17T17:35:38.045Z,97644.59
2018-09-17T17:38:05.181Z,97645.38
2018-09-17T17:40:32.312Z,97643.00
2018-09-17T17:42:59.018Z,97644.59
2018-09-17T17:45:26.024Z,97647.21
2018-09-17T17:47:52.940Z,97644.59
2018-09-17T17:50:19.829Z,97651.16
2018-09-17T17:52:46.733Z,97645.90
2018-09-17T17:55:13.639Z,97647.21
2018-09-17T17:57:40.565Z,97647.73
2018-09-17T18:00:07.492Z,97654.30
2018-09-17T18:02:34.545Z,97658.81
2018-09-17T18:05:01.489Z,97657.78
2018-09-17T18:07:28.641Z,97661.20
2018-09-17T18:09:55.593Z,97660.68
2018-09-17T18:12:22.559Z,97665.41
2018-09-17T18:14:49.513Z,97661.47
2018-09-17T18:17:16.539Z,97669.35
2018-09-17T18:19:43.547Z,97663.58
2018-09-17T18:22:10.493Z,97667.00
2018-09-17T18:24:37.445Z,97662.30
2018-09-17T18:27:04.375Z,97663.58
2018-09-17T18:29:31.339Z,97665.72
2018-09-17T18:31:58.255Z,97671.48
2018-09-17T18:34:25.218Z,97672.56
2018-09-17T18:36:52.264Z,97678.30
2018-09-17T18:39:19.241Z,97676.20
2018-09-17T18:41:46.169Z,97679.34
2018-09-17T18:44:13.149Z,97679.59
2018-09-17T18:46:40.076Z,97679.06
2018-09-17T18:49:07.008Z,97679.06
2018-09-17T18:51:34.063Z,97678.27
2018-09-17T18:54:01.209Z,97674.05
2018-09-17T18:56:28.091Z,97675.37
2018-09-17T18:58:55.095Z,97674.05
2018-09-17T19:01:22.057Z,97677.48
2018-09-17T19:03:49.061Z,97680.62
2018-09-17T19:06:16.097Z,97680.10
2018-09-17T19:08:43.021Z,97676.16
2018-09-17T19:11:10.034Z,97682.73
2018-09-17T19:13:37.047Z,97683.77
2018-09-17T19:16:04.001Z,97675.37
2018-09-17T19:18:30.977Z,97674.05
2018-09-17T19:20:58.299Z,97671.95
2018-09-17T19:23:30.300Z,97671.43
2018-09-17T19:25:57.381Z,97678.80
2018-09-17T19:28:29.731Z,97672.22
2018-09-17T19:30:56.748Z,97673.39
2018-09-17T19:33:23.877Z,97667.55
2018-09-17T19:35:50.988Z,97674.39
2018-09-17T19:38:23.235Z,97669.91
2018-09-17T19:40:50.167Z,97673.33
2018-09-17T19:43:17.147Z,97677.27
2018-09-17T19:45:49.406Z,97669.91
2018-09-17T19:48:16.551Z,97665.69
2018-09-17T19:52:51.364Z,97665.96
2018-09-17T19:55:18.380Z,97673.33
2018-09-17T19:57:50.828Z,97664.65
2018-09-17T20:00:17.777Z,97666.48
2018-09-17T20:02:44.775Z,97665.69
2018-09-17T20:05:17.210Z,97668.13
2018-09-17T20:07:44.221Z,97662.63
2018-09-17T20:10:11.237Z,97664.98
2018-09-17T20:12:38.446Z,97667.09
2018-09-17T20:15:05.460Z,97663.67
2018-09-17T20:17:32.491Z,97669.45
2018-09-17T20:19:59.491Z,97669.72
2018-09-17T20:22:26.460Z,97674.18
2018-09-17T20:24:53.437Z,97664.98
2018-09-17T20:27:20.504Z,97668.63
2018-09-17T20:29:47.444Z,97661.26
2018-09-17T20:32:14.351Z,97663.37
2018-09-17T20:34:41.374Z,97670.23
2018-09-17T20:37:08.370Z,97664.19
2018-09-17T20:39:35.444Z,97660.25
2018-09-17T20:42:02.489Z,97657.90
2018-09-17T20:44:29.492Z,97660.25
2018-09-17T20:46:56.494Z,97658.94
2018-09-17T20:49:23.585Z,97656.80
2018-09-17T20:51:50.595Z,97658.42
2018-09-17T20:54:17.949Z,97654.48
2018-09-17T20:56:44.970Z,97656.59
2018-09-17T20:59:11.983Z,97657.62
2018-09-17T21:01:39.177Z,97659.73
2018-09-17T21:04:06.206Z,97658.42
2018-09-17T21:06:33.192Z,97654.48
2018-09-17T21:09:00.671Z,97655.48
2018-09-17T21:11:27.697Z,97654.48
2018-09-17T21:13:54.686Z,97652.38
2018-09-17T21:16:21.629Z,97653.16
2018-09-17T21:18:48.743Z,97659.73
2018-09-17T21:21:15.767Z,97662.36
2018-09-17T21:23:42.759Z,97661.84
2018-09-17T21:26:09.940Z,97663.16
2018-09-17T21:28:36.995Z,97663.16
2018-09-17T21:31:04.096Z,97660.52
2018-09-17T21:33:31.093Z,97659.73
2018-09-17T21:35:58.129Z,97657.90
2018-09-17T21:38:25.075Z,97656.31
2018-09-17T21:40:52.084Z,97662.36
2018-09-17T21:43:19.198Z,97661.32
2018-09-17T21:45:46.129Z,97659.22
2018-09-17T21:48:13.111Z,97653.95
2018-09-17T21:50:40.123Z,97652.65
2018-09-17T21:53:07.386Z,97645.28
2018-09-17T21:55:34.368Z,97646.87
2018-09-17T21:58:01.397Z,97648.70
2018-09-17T22:00:32.569Z,97649.74
2018-09-17T22:02:59.607Z,97650.54
2018-09-17T22:05:26.562Z,97649.50
2018-09-17T22:07:53.593Z,97645.56
2018-09-17T22:10:20.592Z,97645.56
2018-09-17T22:12:47.578Z,97647.39
2018-09-17T22:15:14.590Z,97644.77
2018-09-17T22:17:41.552Z,97640.30
2018-09-17T22:20:08.537Z,97641.62
2018-09-17T22:22:35.532Z,97638.20
2018-09-17T22:25:02.525Z,97632.15
2018-09-17T22:27:29.500Z,97625.06
2018-09-17T22:29:56.468Z,97625.58
2018-09-17T22:32:23.444Z,97631.36
2018-09-17T22:34:50.417Z,97622.95
2018-09-17T22:37:17.448Z,97625.58
2018-09-17T22:39:44.489Z,97617.19
2018-09-17T22:42:11.557Z,97611.94
2018-09-17T22:44:38.533Z,97612.73
2018-09-17T22:47:05.833Z,97614.04
2018-09-17T22:49:32.948Z,97609.52
2018-09-17T22:51:59.985Z,97610.09
2018-09-17T22:54:26.946Z,97611.94
2018-09-17T22:56:53.945Z,97611.94
2018-09-17T22:59:20.925Z,97614.31
2018-09-17T23:01:47.896Z,97612.73
2018-09-17T23:04:14.841Z,97610.62
2018-09-17T23:06:41.909Z,97615.11
2018-09-17T23:09:10.217Z,97614.83
2018-09-17T23:11:37.242Z,97616.42
2018-09-17T23:14:04.258Z,97613.52
2018-09-17T23:16:31.236Z,97604.84
2018-09-17T23:18:58.227Z,97603.80
2018-09-17T23:21:25.250Z,97609.06
2018-09-17T23:23:52.219Z,97609.06
2018-09-17T23:26:19.238Z,97609.06
2018-09-17T23:28:46.265Z,97603.02
2018-09-17T23:31:13.262Z,97604.84
2018-09-17T23:33:40.272Z,97611.69
2018-09-17T23:36:07.273Z,97604.84
2018-09-17T23:38:34.259Z,97601.18
2018-09-17T23:41:01.339Z,97609.06
2018-09-17T23:43:28.369Z,97605.91
2018-09-17T23:45:55.442Z,97607.75
2018-09-17T23:48:22.504Z,97605.12
2018-09-17T23:50:49.521Z,97603.80
2018-09-17T23:53:16.492Z,97597.76
2018-09-17T23:55:43.533Z,97601.18
2018-09-17T23:58:10.570Z,97599.34
